Archival Weather

Salzburg

Salzburg, Austria (LOWS)

Report from: Friday, May 26, 2023 1:50 AM CEST
Current time: Monday, June 17, 2024 11:37 AM CEST

Current weather – Weather history – Daily summaries
Weather forecast

Present weatherMist
Temperature11.0°C (51.8°F)
Dew point10.0°C (50.0°F)
Winds 3 kts (1.5 m/s, 3.5 mph) South (170°)
Visibility6.2 mi. (10 km)
Clouds Few clouds 100 ft. (30 m)
Altimeter30.21 in.Hg (1023 mB)
Relative humidity94 %
Density altitude-633 ft. (-193 m)
Remarks Fully automated report
Flight conditions Visual Meteorological Conditions
Raw dataLOWS 252350Z AUTO 17003KT 9999 1200S R15/P1500D R33/P1500D BR FEW001 11/10 Q1023
An error has occurred. This application may no longer respond until reloaded. Reload 🗙